createdAt,value
2022-12-09T00:01:55.095Z,31.73
2022-12-09T00:04:23.419Z,30.17
2022-12-09T00:06:53.065Z,29.73
2022-12-09T00:09:21.323Z,31.43
2022-12-09T00:11:49.662Z,31.10
2022-12-09T00:14:17.839Z,30.47
2022-12-09T00:16:46.070Z,30.90
2022-12-09T00:19:14.407Z,30.93
2022-12-09T00:21:43.379Z,30.13
2022-12-09T00:24:14.859Z,30.00
2022-12-09T00:26:43.452Z,29.97
2022-12-09T00:29:12.677Z,30.47
2022-12-09T00:31:41.153Z,30.67
2022-12-09T00:34:12.984Z,30.23
2022-12-09T00:36:41.326Z,29.67
2022-12-09T00:39:09.699Z,30.47
2022-12-09T00:41:39.532Z,29.83
2022-12-09T00:44:07.791Z,29.40
2022-12-09T00:46:35.920Z,29.20
2022-12-09T00:49:05.544Z,29.03
2022-12-09T00:51:37.463Z,29.43
2022-12-09T00:54:06.028Z,30.10
2022-12-09T00:56:34.279Z,29.03
2022-12-09T00:59:03.992Z,28.13
2022-12-09T01:01:32.249Z,27.90
2022-12-09T01:04:02.930Z,29.07
2022-12-09T01:06:31.139Z,28.77
2022-12-09T01:08:59.580Z,28.00
2022-12-09T01:11:29.541Z,28.40
2022-12-09T01:14:01.115Z,30.40
2022-12-09T01:16:33.808Z,29.33
2022-12-09T01:19:04.302Z,30.50
2022-12-09T01:21:33.125Z,29.70
2022-12-09T01:24:01.339Z,28.60
2022-12-09T01:26:29.430Z,30.33
2022-12-09T01:28:58.256Z,29.57
2022-12-09T01:31:27.302Z,30.50
2022-12-09T01:33:57.568Z,30.00
2022-12-09T01:36:28.027Z,32.07
2022-12-09T01:38:57.659Z,31.43
2022-12-09T01:41:26.204Z,31.63
2022-12-09T01:44:15.554Z,32.37
2022-12-09T01:46:44.843Z,31.63
2022-12-09T01:49:21.488Z,31.03
2022-12-09T01:51:57.542Z,31.10
2022-12-09T01:54:25.940Z,31.30
2022-12-09T01:56:54.846Z,31.67
2022-12-09T01:59:24.772Z,29.93
2022-12-09T02:01:58.126Z,29.80
2022-12-09T02:04:29.796Z,29.67
2022-12-09T02:07:00.153Z,30.50
2022-12-09T02:09:29.179Z,30.73
2022-12-09T02:12:10.839Z,31.70
2022-12-09T02:14:43.512Z,32.20
2022-12-09T02:17:27.374Z,32.10
2022-12-09T02:20:05.788Z,30.23
2022-12-09T02:22:39.660Z,29.90
2022-12-09T02:25:17.854Z,29.67
2022-12-09T02:27:51.093Z,29.90
2022-12-09T02:30:22.651Z,30.83
2022-12-09T02:33:14.140Z,29.43
2022-12-09T02:35:49.841Z,27.70
2022-12-09T02:38:21.645Z,26.77
2022-12-09T02:40:55.316Z,26.67
2022-12-09T02:43:27.447Z,26.87
2022-12-09T02:45:57.284Z,25.10
2022-12-09T02:48:29.098Z,25.20
2022-12-09T02:51:00.398Z,24.23
2022-12-09T02:53:29.031Z,24.33
2022-12-09T02:55:57.988Z,24.50
2022-12-09T02:58:26.171Z,23.87
2022-12-09T03:00:57.231Z,23.77
2022-12-09T03:03:28.133Z,24.00
2022-12-09T03:06:02.575Z,24.17
2022-12-09T03:08:38.378Z,23.47
2022-12-09T03:11:08.971Z,24.37
2022-12-09T03:13:46.842Z,24.03
2022-12-09T03:16:34.860Z,23.27
2022-12-09T03:19:07.732Z,22.67
2022-12-09T03:21:40.043Z,23.53
2022-12-09T03:24:11.580Z,24.60
2022-12-09T03:26:41.240Z,23.43
2022-12-09T03:29:15.113Z,23.23
2022-12-09T03:31:44.386Z,22.70
2022-12-09T03:34:17.659Z,24.20
2022-12-09T03:36:49.812Z,22.97
2022-12-09T03:39:25.247Z,24.30
2022-12-09T03:41:57.729Z,24.50
2022-12-09T03:44:31.871Z,25.03
2022-12-09T03:47:00.302Z,25.80
2022-12-09T03:49:28.900Z,24.77
2022-12-09T03:52:05.943Z,24.23
2022-12-09T03:54:38.000Z,25.87
2022-12-09T03:57:06.880Z,25.17
2022-12-09T03:59:36.177Z,24.70
2022-12-09T04:02:07.006Z,24.17
2022-12-09T04:04:36.711Z,24.33
2022-12-09T04:07:06.967Z,24.30
2022-12-09T04:09:35.252Z,24.47
2022-12-09T04:12:03.561Z,21.90
2022-12-09T04:14:31.795Z,21.73
2022-12-09T04:17:00.230Z,20.20
2022-12-09T04:19:28.914Z,18.83
2022-12-09T04:21:56.953Z,20.60
2022-12-09T04:24:26.774Z,19.00
2022-12-09T04:26:55.080Z,19.00
2022-12-09T04:29:23.134Z,19.00
2022-12-09T04:31:52.087Z,20.10
2022-12-09T04:34:20.226Z,19.57
2022-12-09T04:36:50.010Z,19.10
2022-12-09T04:39:19.493Z,20.27
2022-12-09T04:41:49.010Z,20.40
2022-12-09T04:44:17.915Z,20.40
2022-12-09T04:46:45.990Z,20.53
2022-12-09T04:49:14.064Z,21.10
2022-12-09T04:51:42.241Z,20.53
2022-12-09T04:54:14.578Z,21.50
2022-12-09T04:56:43.765Z,21.70
2022-12-09T04:59:13.475Z,22.53
2022-12-09T05:01:41.707Z,24.53
2022-12-09T05:04:10.363Z,23.87
2022-12-09T05:06:38.853Z,25.07
2022-12-09T05:09:10.704Z,27.03
2022-12-09T05:11:39.284Z,27.93
2022-12-09T05:14:07.820Z,28.50
2022-12-09T05:16:37.447Z,28.47
2022-12-09T05:19:06.334Z,26.77
2022-12-09T05:21:37.952Z,26.73
2022-12-09T05:24:06.996Z,24.73
2022-12-09T05:26:35.170Z,24.97
2022-12-09T05:29:03.582Z,25.17
2022-12-09T05:31:32.060Z,25.23
2022-12-09T05:34:02.236Z,25.07
2022-12-09T05:36:30.445Z,26.27
2022-12-09T05:38:58.670Z,26.77
2022-12-09T05:41:27.271Z,27.47
2022-12-09T05:43:55.513Z,28.63
2022-12-09T05:46:24.377Z,28.33
2022-12-09T05:48:52.622Z,28.90
2022-12-09T05:51:25.630Z,28.50
2022-12-09T05:53:54.929Z,28.00
2022-12-09T05:56:25.513Z,29.77
2022-12-09T05:58:55.483Z,29.23
2022-12-09T06:01:24.479Z,30.17
2022-12-09T06:03:54.532Z,28.53
2022-12-09T06:06:28.092Z,29.10
2022-12-09T06:08:58.745Z,28.73
2022-12-09T06:11:27.897Z,30.57
2022-12-09T06:13:57.065Z,29.40
2022-12-09T06:16:26.249Z,29.53
2022-12-09T06:18:55.150Z,29.10
2022-12-09T06:21:25.517Z,31.77
2022-12-09T06:23:54.337Z,31.23
2022-12-09T06:26:25.232Z,30.37
2022-12-09T06:28:54.263Z,30.80
2022-12-09T06:31:23.166Z,29.90
2022-12-09T06:33:55.261Z,30.93
2022-12-09T06:36:26.525Z,31.70
2022-12-09T06:38:56.690Z,30.90
2022-12-09T06:41:25.782Z,29.73
2022-12-09T06:43:54.571Z,29.83
2022-12-09T06:46:24.946Z,29.23
2022-12-09T06:48:54.085Z,30.40
2022-12-09T06:51:25.370Z,31.17
2022-12-09T06:53:54.594Z,29.73
2022-12-09T06:56:23.271Z,30.10
2022-12-09T06:58:52.215Z,30.67
2022-12-09T07:01:22.753Z,30.73
2022-12-09T07:03:57.528Z,31.90
2022-12-09T07:06:31.123Z,30.77
2022-12-09T07:09:01.952Z,30.67
2022-12-09T07:11:31.052Z,29.83
2022-12-09T07:13:59.661Z,30.27
2022-12-09T07:16:28.671Z,30.57
2022-12-09T07:18:58.217Z,29.87
2022-12-09T07:21:28.518Z,29.43
2022-12-09T07:24:00.015Z,29.67
2022-12-09T07:26:28.586Z,28.43
2022-12-09T07:28:56.771Z,30.50
2022-12-09T07:31:27.696Z,30.90
2022-12-09T07:33:57.939Z,31.30
2022-12-09T07:36:30.250Z,30.80
2022-12-09T07:38:59.356Z,32.13
2022-12-09T07:41:28.208Z,30.90
2022-12-09T07:43:57.311Z,30.90
2022-12-09T07:46:27.639Z,32.07
2022-12-09T07:48:57.373Z,31.30
2022-12-09T07:51:33.291Z,31.93
2022-12-09T07:54:01.810Z,31.87
2022-12-09T07:56:30.874Z,31.73
2022-12-09T07:58:59.492Z,32.37
2022-12-09T08:01:30.174Z,32.37
2022-12-09T08:04:00.201Z,34.80
2022-12-09T08:06:32.057Z,34.47
2022-12-09T08:09:02.273Z,34.53
2022-12-09T08:11:33.131Z,34.17
2022-12-09T08:14:08.939Z,34.57
2022-12-09T08:16:39.661Z,34.97
2022-12-09T08:19:12.140Z,35.57
2022-12-09T08:21:42.685Z,37.07
2022-12-09T08:24:13.743Z,36.67
2022-12-09T08:26:42.363Z,36.97
2022-12-09T08:29:12.240Z,86.17
2022-12-09T08:31:43.187Z,38.77
2022-12-09T08:34:12.347Z,35.20
2022-12-09T08:36:43.435Z,34.47
2022-12-09T08:39:13.300Z,34.00
2022-12-09T08:41:41.898Z,34.80
2022-12-09T08:44:12.271Z,35.43
2022-12-09T08:46:42.693Z,35.67
2022-12-09T08:49:11.841Z,36.93
2022-12-09T08:51:42.014Z,39.07
2022-12-09T08:54:10.705Z,39.63
2022-12-09T08:56:39.427Z,36.93
2022-12-09T08:59:08.376Z,37.63
2022-12-09T09:01:36.725Z,38.43
2022-12-09T09:04:08.072Z,37.67
2022-12-09T09:06:37.376Z,37.83
2022-12-09T09:09:08.106Z,35.27
2022-12-09T09:11:37.458Z,35.67
2022-12-09T09:14:07.712Z,36.50
2022-12-09T09:16:36.483Z,35.47
2022-12-09T09:19:06.833Z,36.63
2022-12-09T09:21:36.390Z,34.60
2022-12-09T09:24:12.880Z,35.23
2022-12-09T09:26:42.953Z,33.90
2022-12-09T09:29:12.739Z,35.00
2022-12-09T09:31:42.015Z,33.47
2022-12-09T09:34:11.343Z,33.63
2022-12-09T09:36:41.605Z,32.77
2022-12-09T09:39:11.960Z,33.37
2022-12-09T09:41:49.464Z,32.87
2022-12-09T09:44:23.245Z,31.63
2022-12-09T09:46:54.517Z,32.60
2022-12-09T09:49:30.917Z,32.43
2022-12-09T09:52:00.557Z,30.27
2022-12-09T09:54:30.515Z,29.57
2022-12-09T09:57:06.470Z,30.17
2022-12-09T09:59:44.543Z,31.13
2022-12-09T10:02:21.122Z,31.47
2022-12-09T10:05:02.271Z,31.63
2022-12-09T10:07:39.774Z,31.20
2022-12-09T10:10:20.750Z,31.97
2022-12-09T10:13:06.915Z,31.87
2022-12-09T10:15:44.059Z,31.20
2022-12-09T10:18:21.040Z,30.37
2022-12-09T10:20:49.627Z,31.40
2022-12-09T10:23:19.076Z,31.97
2022-12-09T10:25:53.756Z,31.20
2022-12-09T10:28:26.134Z,34.13
2022-12-09T10:30:56.530Z,31.77
2022-12-09T10:33:29.482Z,31.67
2022-12-09T10:35:58.538Z,31.73
2022-12-09T10:38:28.853Z,32.23
2022-12-09T10:41:05.899Z,31.43
2022-12-09T10:43:39.034Z,31.67
2022-12-09T10:46:19.655Z,31.53
2022-12-09T10:48:57.035Z,31.53
2022-12-09T10:51:27.998Z,30.23
2022-12-09T10:53:59.053Z,32.37
2022-12-09T10:56:30.959Z,31.37
2022-12-09T10:59:15.923Z,32.37
2022-12-09T11:01:53.702Z,31.67
2022-12-09T11:04:26.439Z,31.80
2022-12-09T11:06:59.867Z,32.57
2022-12-09T11:09:32.007Z,31.13
2022-12-09T11:12:03.963Z,31.10
2022-12-09T11:14:36.665Z,31.87
2022-12-09T11:17:17.659Z,32.53
2022-12-09T11:19:48.918Z,31.20
2022-12-09T11:22:29.239Z,31.43
2022-12-09T11:25:16.602Z,30.87
2022-12-09T11:27:53.852Z,31.23
2022-12-09T11:30:24.834Z,30.43
2022-12-09T11:33:07.804Z,30.00
2022-12-09T11:35:51.044Z,30.03
2022-12-09T11:38:26.492Z,31.07
2022-12-09T11:41:03.122Z,29.40
2022-12-09T11:43:37.632Z,29.03
2022-12-09T11:46:18.856Z,29.03
2022-12-09T11:48:54.179Z,27.60
2022-12-09T11:51:28.802Z,26.90
2022-12-09T11:54:03.633Z,26.90
2022-12-09T11:56:33.770Z,28.43
2022-12-09T11:59:06.407Z,27.30
2022-12-09T12:01:47.671Z,26.63
2022-12-09T12:04:18.070Z,27.83
2022-12-09T12:06:49.844Z,26.30
2022-12-09T12:09:24.213Z,26.83
2022-12-09T12:12:16.380Z,26.33
2022-12-09T12:14:47.175Z,26.37
2022-12-09T12:17:20.873Z,26.23
2022-12-09T12:19:52.512Z,25.03
2022-12-09T12:22:56.282Z,25.83
2022-12-09T12:25:47.103Z,25.50
2022-12-09T12:28:38.292Z,25.13
2022-12-09T12:31:19.762Z,25.10
2022-12-09T12:34:22.985Z,24.97
2022-12-09T12:36:58.789Z,25.97
2022-12-09T12:39:40.762Z,26.03
2022-12-09T12:42:22.131Z,26.33
2022-12-09T12:45:17.014Z,25.07
2022-12-09T12:47:51.678Z,26.33
2022-12-09T12:50:48.439Z,28.07
2022-12-09T12:53:30.202Z,27.43
2022-12-09T12:56:02.263Z,27.47
2022-12-09T12:58:55.235Z,27.17
2022-12-09T13:01:31.284Z,27.10
2022-12-09T13:04:12.775Z,27.70
2022-12-09T13:06:47.494Z,27.00
2022-12-09T13:09:22.920Z,27.30
2022-12-09T13:12:03.807Z,27.23
2022-12-09T13:14:37.917Z,26.93
2022-12-09T13:17:13.304Z,27.37
2022-12-09T13:19:45.254Z,27.93
2022-12-09T13:22:20.732Z,30.77
2022-12-09T13:25:00.162Z,28.17
2022-12-09T13:27:37.066Z,25.87
2022-12-09T13:30:12.315Z,26.07
2022-12-09T13:33:10.236Z,26.97
2022-12-09T13:35:47.234Z,26.60
2022-12-09T13:38:34.642Z,26.00
2022-12-09T13:41:57.871Z,26.57
2022-12-09T13:44:35.379Z,25.97
2022-12-09T13:47:24.468Z,25.40
2022-12-09T13:50:00.631Z,26.23
2022-12-09T13:52:58.752Z,25.97
2022-12-09T13:55:34.889Z,25.30
2022-12-09T13:58:31.942Z,25.53
2022-12-09T14:01:08.156Z,26.07
2022-12-09T14:03:40.552Z,27.10
2022-12-09T14:06:22.930Z,26.43
2022-12-09T14:08:56.575Z,25.40
2022-12-09T14:11:50.637Z,25.50
2022-12-09T14:14:58.825Z,26.53
2022-12-09T14:18:01.562Z,28.40
2022-12-09T14:20:36.327Z,27.37
2022-12-09T14:23:25.627Z,28.13
2022-12-09T14:26:33.132Z,28.03
2022-12-09T14:29:01.614Z,28.53
2022-12-09T14:31:50.427Z,28.50
2022-12-09T14:34:44.363Z,28.27
2022-12-09T14:37:37.335Z,27.80
2022-12-09T14:40:38.334Z,28.67
2022-12-09T14:43:25.803Z,29.77
2022-12-09T14:46:03.795Z,29.13
2022-12-09T14:48:35.300Z,29.97
2022-12-09T14:51:18.201Z,29.93
2022-12-09T14:53:51.034Z,29.03
2022-12-09T14:56:22.163Z,30.03
2022-12-09T14:58:54.982Z,31.03
2022-12-09T15:01:23.180Z,28.97
2022-12-09T15:03:56.134Z,31.27
2022-12-09T15:06:27.572Z,30.60
2022-12-09T15:08:58.654Z,29.70
2022-12-09T15:11:29.513Z,31.10
2022-12-09T15:14:22.548Z,30.03
2022-12-09T15:16:51.892Z,29.63
2022-12-09T15:19:58.173Z,29.47
2022-12-09T15:22:29.696Z,29.33
2022-12-09T15:24:58.051Z,28.37
2022-12-09T15:27:27.885Z,30.70
2022-12-09T15:29:57.678Z,29.87
2022-12-09T15:32:28.306Z,30.30
2022-12-09T15:34:57.004Z,31.90
2022-12-09T15:37:28.544Z,31.40
2022-12-09T15:40:01.340Z,32.40
2022-12-09T15:42:33.104Z,33.07
2022-12-09T15:45:09.936Z,32.83
2022-12-09T15:47:41.644Z,33.67
2022-12-09T15:50:18.380Z,31.10
2022-12-09T15:52:51.177Z,33.63
2022-12-09T15:55:23.586Z,33.63
2022-12-09T15:57:56.015Z,34.63
2022-12-09T16:00:25.897Z,35.80
2022-12-09T16:02:54.483Z,36.33
2022-12-09T16:05:25.149Z,37.03
2022-12-09T16:07:59.037Z,36.93
2022-12-09T16:10:28.384Z,34.23
2022-12-09T16:13:08.168Z,35.43
2022-12-09T16:15:53.663Z,36.57
2022-12-09T16:18:25.483Z,38.50
2022-12-09T16:21:04.710Z,34.60
2022-12-09T16:23:34.277Z,30.90
2022-12-09T16:26:07.336Z,39.33
2022-12-09T16:28:37.110Z,30.97
2022-12-09T16:31:18.746Z,27.53
2022-12-09T16:33:50.000Z,28.47
2022-12-09T16:36:21.444Z,28.60
2022-12-09T16:39:25.395Z,30.13
2022-12-09T16:42:01.677Z,29.63
2022-12-09T16:44:32.599Z,30.73
2022-12-09T16:47:14.769Z,30.47
2022-12-09T16:49:47.059Z,30.50
2022-12-09T16:52:16.937Z,31.33
2022-12-09T16:54:46.797Z,33.27
2022-12-09T16:57:16.682Z,31.33
2022-12-09T16:59:45.810Z,31.10
2022-12-09T17:02:24.116Z,32.63
2022-12-09T17:04:53.296Z,31.77
2022-12-09T17:07:21.488Z,31.17
2022-12-09T17:09:49.654Z,32.23
2022-12-09T17:12:17.925Z,32.50
2022-12-09T17:14:46.322Z,38.10
2022-12-09T17:17:14.526Z,32.80
2022-12-09T17:19:44.284Z,29.60
2022-12-09T17:22:12.596Z,28.80
2022-12-09T17:24:41.026Z,30.37
2022-12-09T17:27:12.660Z,30.23
2022-12-09T17:29:40.837Z,30.40
2022-12-09T17:32:09.173Z,30.10
2022-12-09T17:34:37.426Z,31.00
2022-12-09T17:37:07.273Z,30.23
2022-12-09T17:39:38.718Z,30.43
2022-12-09T17:42:06.897Z,31.20
2022-12-09T17:44:35.864Z,32.80
2022-12-09T17:47:03.963Z,31.80
2022-12-09T17:49:32.194Z,31.73
2022-12-09T17:52:03.857Z,32.33
2022-12-09T17:54:33.588Z,31.63
2022-12-09T17:57:01.818Z,34.93
2022-12-09T17:59:29.915Z,33.90
2022-12-09T18:01:58.346Z,32.43
2022-12-09T18:04:28.928Z,32.17
2022-12-09T18:06:57.420Z,30.60
2022-12-09T18:09:25.892Z,30.33
2022-12-09T18:11:55.440Z,31.17
2022-12-09T18:14:25.468Z,30.70
2022-12-09T18:16:53.974Z,32.23
2022-12-09T18:19:27.011Z,33.03
2022-12-09T18:21:55.856Z,33.17
2022-12-09T18:24:24.345Z,32.43
2022-12-09T18:26:52.852Z,33.43
2022-12-09T18:29:23.068Z,32.87
2022-12-09T18:31:55.865Z,33.97
2022-12-09T18:34:24.228Z,34.30
2022-12-09T18:36:52.467Z,34.17
2022-12-09T18:39:21.294Z,34.13
2022-12-09T18:41:49.751Z,35.63
2022-12-09T18:44:22.651Z,36.17
2022-12-09T18:46:52.280Z,35.47
2022-12-09T18:49:22.280Z,34.50
2022-12-09T18:51:52.467Z,33.37
2022-12-09T18:54:23.357Z,33.23
2022-12-09T18:56:52.018Z,31.83
2022-12-09T18:59:25.488Z,31.80
2022-12-09T19:01:55.797Z,32.60
2022-12-09T19:04:26.174Z,34.27
2022-12-09T19:06:55.910Z,32.13
2022-12-09T19:09:30.935Z,35.20
2022-12-09T19:12:22.945Z,34.57
2022-12-09T19:14:52.896Z,36.77
2022-12-09T19:17:22.569Z,34.73
2022-12-09T19:19:50.947Z,36.27
2022-12-09T19:22:19.398Z,36.83
2022-12-09T19:24:47.578Z,36.00
2022-12-09T19:27:18.258Z,34.77
2022-12-09T19:29:50.219Z,34.13
2022-12-09T19:32:50.907Z,34.97
2022-12-09T19:35:09.457Z,34.33
2022-12-09T19:37:37.758Z,35.03
2022-12-09T19:40:07.574Z,35.03
2022-12-09T19:42:37.081Z,34.07
2022-12-09T19:45:10.512Z,33.73
2022-12-09T19:47:42.183Z,32.30
2022-12-09T19:50:12.239Z,32.40
2022-12-09T19:52:40.542Z,31.50
2022-12-09T19:55:09.643Z,34.07
2022-12-09T19:57:38.008Z,32.03
2022-12-09T20:00:07.455Z,32.17
2022-12-09T20:02:36.496Z,33.30
2022-12-09T20:05:05.430Z,32.97
2022-12-09T20:07:35.059Z,32.37
2022-12-09T20:10:03.263Z,31.60
2022-12-09T20:12:31.803Z,31.10
2022-12-09T20:15:00.028Z,29.90
2022-12-09T20:17:28.662Z,30.03
2022-12-09T20:19:56.897Z,31.03
2022-12-09T20:22:26.378Z,30.77
2022-12-09T20:24:56.615Z,30.47
2022-12-09T20:27:25.322Z,29.20
2022-12-09T20:29:53.512Z,29.47
2022-12-09T20:32:21.737Z,29.53
2022-12-09T20:34:51.471Z,29.50
2022-12-09T20:37:20.163Z,30.87
2022-12-09T20:39:48.326Z,30.17
2022-12-09T20:42:17.944Z,30.37
2022-12-09T20:44:47.188Z,30.20
2022-12-09T20:47:15.490Z,29.73
2022-12-09T20:49:44.013Z,29.50
2022-12-09T20:52:12.320Z,28.57
2022-12-09T20:54:40.580Z,28.53
2022-12-09T20:57:08.812Z,27.93
2022-12-09T20:59:39.769Z,28.20
2022-12-09T21:02:13.477Z,31.70
2022-12-09T21:04:41.801Z,29.37
2022-12-09T21:07:09.995Z,28.50
2022-12-09T21:09:38.249Z,28.93
2022-12-09T21:12:06.809Z,28.57
2022-12-09T21:14:36.426Z,29.83
2022-12-09T21:17:05.944Z,28.57
2022-12-09T21:19:34.353Z,28.13
2022-12-09T21:22:02.514Z,28.43
2022-12-09T21:24:30.624Z,28.83
2022-12-09T21:26:59.786Z,28.97
2022-12-09T21:29:31.939Z,28.70
2022-12-09T21:32:02.081Z,28.50
2022-12-09T21:34:31.964Z,29.10
2022-12-09T21:37:00.519Z,29.47
2022-12-09T21:39:29.186Z,27.63
2022-12-09T21:41:57.321Z,27.13
2022-12-09T21:44:27.160Z,27.57
2022-12-09T21:46:55.686Z,29.33
2022-12-09T21:49:24.100Z,28.30
2022-12-09T21:51:53.949Z,28.13
2022-12-09T21:54:22.088Z,27.90
2022-12-09T21:56:50.162Z,28.23
2022-12-09T21:59:18.348Z,29.03
2022-12-09T22:01:46.676Z,27.93
2022-12-09T22:04:16.452Z,28.30
2022-12-09T22:06:47.700Z,26.57
2022-12-09T22:09:20.792Z,26.93
2022-12-09T22:11:52.699Z,26.87
2022-12-09T22:14:21.025Z,24.53
2022-12-09T22:16:49.530Z,26.90
2022-12-09T22:19:19.294Z,26.63
2022-12-09T22:21:47.983Z,27.03
2022-12-09T22:24:18.940Z,26.97
2022-12-09T22:26:48.417Z,27.97
2022-12-09T22:29:18.272Z,26.47
2022-12-09T22:31:47.116Z,26.20
2022-12-09T22:34:17.170Z,26.83
2022-12-09T22:36:46.175Z,26.80
2022-12-09T22:39:15.664Z,26.37
2022-12-09T22:41:46.211Z,25.97
2022-12-09T22:44:20.908Z,26.30
2022-12-09T22:46:49.682Z,25.63
2022-12-09T22:49:18.717Z,26.63
2022-12-09T22:51:47.730Z,25.50
2022-12-09T22:54:16.047Z,25.47
2022-12-09T22:56:46.059Z,27.07
2022-12-09T22:59:15.380Z,27.03
2022-12-09T23:01:45.770Z,24.97
2022-12-09T23:04:15.946Z,25.73
2022-12-09T23:06:44.351Z,24.97
2022-12-09T23:09:17.211Z,26.13
2022-12-09T23:11:47.354Z,25.83
2022-12-09T23:14:15.953Z,27.07
2022-12-09T23:16:44.740Z,25.80
2022-12-09T23:19:14.434Z,27.67
2022-12-09T23:21:43.969Z,25.47
2022-12-09T23:24:24.101Z,25.90
2022-12-09T23:26:56.135Z,23.37
2022-12-09T23:29:24.840Z,24.90
2022-12-09T23:31:53.189Z,24.43
2022-12-09T23:34:23.554Z,23.80
2022-12-09T23:36:51.818Z,25.00
2022-12-09T23:39:20.421Z,25.40
2022-12-09T23:41:49.137Z,25.97
2022-12-09T23:44:20.480Z,28.40
2022-12-09T23:46:48.953Z,26.43
2022-12-09T23:49:17.644Z,28.00
2022-12-09T23:51:46.338Z,27.13
2022-12-09T23:54:16.015Z,28.27
2022-12-09T23:56:50.334Z,26.93
2022-12-09T23:59:22.401Z,27.53
